Azamara Quest — V7DM6 — position and weather

sailwx.info

Track history (hours):
 
Tides and Currents Weather Stations Pressure Air Temp Water Temp Dewpoint Dewpoint Depression Visibility Wind Speed Wind Dir Waves Ship Positions

Azamara Quest

Last reported at 2017-Jan-23 16:28 UTC. Time now 2017-Jan-23 16:47 UTC.
Position N 51°53' E 004°16'.

Length 184 m; draft 7 m.

Type: Ship. MMSI: 538005401.

Date/timePositionNaut miles runAvg speedWind from/ knotsBaromVisibWave heightAir tempDewpointWater temp
2017-Jan-23 16:28N 51°53' E 004°16'0 0.0
2017-Jan-23 15:28N 51°53' E 004°16'0 0.0
2017-Jan-23 14:28N 51°53' E 004°16'0 0.0
2017-Jan-23 13:28N 51°53' E 004°16'0 0.0
2017-Jan-23 12:28N 51°53' E 004°16'0 0.0
2017-Jan-23 11:28N 51°53' E 004°16'0 0.0
2017-Jan-23 10:29N 51°53' E 004°16'0 0.0
2017-Jan-23 09:25N 51°53' E 004°16'0 0.0
2017-Jan-23 08:31N 51°53' E 004°16'0 0.0
2017-Jan-23 07:29N 51°53' E 004°16'0 0.0
2017-Jan-23 06:28N 51°53' E 004°16'0 0.0
2017-Jan-23 05:22N 51°53' E 004°16'0 0.0
2017-Jan-23 04:29N 51°53' E 004°16'0 0.0
2017-Jan-23 03:31N 51°53' E 004°16'0 0.0
2017-Jan-23 02:28N 51°53' E 004°16'0 0.0
2017-Jan-23 01:32N 51°53' E 004°16'0 0.0
2017-Jan-23 00:29N 51°53' E 004°16'0 0.0
2017-Jan-22 23:29N 51°53' E 004°16'0 0.0
2017-Jan-22 22:32N 51°53' E 004°16'0 0.0
2017-Jan-22 21:29N 51°53' E 004°16'0 0.0
2017-Jan-22 20:32N 51°53' E 004°16'0 0.0
2017-Jan-22 19:31N 51°53' E 004°16'0 0.0
2017-Jan-22 18:32N 51°53' E 004°16'0 0.0
2017-Jan-22 17:23N 51°53' E 004°16'0 0.0
2017-Jan-22 16:23N 51°53' E 004°16'0 0.0
2017-Jan-22 15:29N 51°53' E 004°16'0 0.0
2017-Jan-22 14:28N 51°53' E 004°16'0 0.0
2017-Jan-22 13:29N 51°53' E 004°16'0 0.0
2017-Jan-22 12:29N 51°53' E 004°16'0 0.0
2017-Jan-22 11:23N 51°53' E 004°16'0 0.0
2017-Jan-22 10:29N 51°53' E 004°16'0 0.0
2017-Jan-22 09:28N 51°53' E 004°16'0 0.0
2017-Jan-22 08:28N 51°53' E 004°16'0 0.0
2017-Jan-22 07:26N 51°53' E 004°16'0 0.0
2017-Jan-22 06:28N 51°53' E 004°16'0 0.0
2017-Jan-22 05:29N 51°53' E 004°16'0 0.0
2017-Jan-22 04:29N 51°53' E 004°16'0 0.0
2017-Jan-22 03:23N 51°53' E 004°16'0 0.0
2017-Jan-22 02:29N 51°53' E 004°16'0 0.0
2017-Jan-22 01:32N 51°53' E 004°16'0 0.0
2017-Jan-22 00:29N 51°53' E 004°16'0 0.0
2017-Jan-21 23:29N 51°53' E 004°16'0 0.0
2017-Jan-21 22:29N 51°53' E 004°16'0 0.0
2017-Jan-21 21:17N 51°53' E 004°16'0 0.0
2017-Jan-21 20:29N 51°53' E 004°16'0 0.0
2017-Jan-21 19:29N 51°53' E 004°16'0 0.0
2017-Jan-21 18:29N 51°53' E 004°16'0 0.0
2017-Jan-21 17:29N 51°53' E 004°16'0 0.0
2017-Jan-21 16:29N 51°53' E 004°16'0 0.0
2017-Jan-21 15:28N 51°53' E 004°16'0 0.0
2017-Jan-21 14:29N 51°53' E 004°16'0 0.0
2017-Jan-21 13:32N 51°53' E 004°16'0 0.0
2017-Jan-21 12:17N 51°53' E 004°16'0 0.0
2017-Jan-21 11:29N 51°53' E 004°16'0 0.0
2017-Jan-21 10:29N 51°53' E 004°16'0 0.0
2017-Jan-21 09:28N 51°53' E 004°16'0 0.0
2017-Jan-21 08:29N 51°53' E 004°16'0 0.5
2017-Jan-21 07:34N 51°53' E 004°17'6 5.9
2017-Jan-21 06:33N 51°57' E 004°10'1211.8
2017-Jan-21 05:33N 51°59' E 003°51'4 4.3
2017-Jan-21 04:34N 51°57' E 003°46'0 0.1
2017-Jan-21 03:33N 51°57' E 003°45'0 0.0
2017-Jan-21 02:33N 51°57' E 003°45'0 0.0
2017-Jan-21 01:33N 51°57' E 003°45'0 0.1
2017-Jan-21 00:33N 51°57' E 003°46'5 5.0
2017-Jan-20 23:33N 52°01' E 003°50'1010.2
2017-Jan-20 22:33N 52°08' E 003°38'2 1.5
2017-Jan-20 21:28N 52°09' E 003°36'0 0.1
2017-Jan-20 20:22N 52°09' E 003°36'3 4.3
2017-Jan-20 19:33N 52°09' E 003°30'1212.4
2017-Jan-20 18:33N 52°13' E 003°11'10 9.1
2017-Jan-20 17:30N 52°20' E 002°60'8 7.5
2017-Jan-20 16:26N 52°24' E 002°49'8 7.5
2017-Jan-20 15:22N 52°31' E 002°42'8 2.5
2017-Jan-20 12:19N 52°38' E 002°37'8 9.2
2017-Jan-20 11:28N 52°46' E 002°38'1010.4
2017-Jan-20 10:33N 52°56' E 002°38'4 3.6
2017-Jan-20 09:25N 52°58' E 002°43'24 8.0
2017-Jan-20 06:27N 52°35' E 002°43'6 7.3
2017-Jan-20 05:33N 52°30' E 002°51'7 7.3
2017-Jan-20 04:33N 52°37' E 002°57'8 7.4
2017-Jan-20 03:31N 52°41' E 003°07'7 7.0
2017-Jan-20 02:32N 52°48' E 003°10'8 7.6
2017-Jan-20 01:29N 52°55' E 003°13'7 7.4
2017-Jan-20 00:33N 53°02' E 003°18'8 7.7
2017-Jan-19 23:33N 53°09' E 003°21'7 7.3
2017-Jan-19 22:32N 53°16' E 003°26'8 7.8
2017-Jan-19 21:31N 53°24' E 003°28'7 7.7
2017-Jan-19 20:33N 53°31' E 003°33'34 7.6
2017-Jan-19 16:07N 53°56' E 004°10'  
2017-Jan-15 23:26N 54°01' E 008°07'1011.3
2017-Jan-15 22:33N 53°59' E 008°24'1212.1
2017-Jan-15 21:33N 53°54' E 008°42'1414.2
2017-Jan-15 20:34N 53°53' E 009°06'1312.5
2017-Jan-15 19:33N 53°46' E 009°24'1515.0
2017-Jan-15 18:33N 53°34' E 009°39'10 9.8
2017-Jan-15 17:33N 53°32' E 009°56'4 4.0
2017-Jan-15 16:34N 53°29' E 009°58'0 0.3
2017-Jan-15 15:25N 53°29' E 009°59'0 0.0
2017-Jan-15 14:31N 53°29' E 009°59'0 0.0
2017-Jan-15 13:31N 53°29' E 009°59'0 0.0
2017-Jan-15 12:25N 53°29' E 009°59'0 0.0
2017-Jan-15 11:31N 53°29' E 009°59'0 0.0
2017-Jan-15 10:25N 53°29' E 009°59'0 0.0
2017-Jan-15 09:28N 53°29' E 009°59'0 0.0
2017-Jan-15 08:31N 53°29' E 009°59'0 0.0
2017-Jan-15 07:31N 53°29' E 009°59'0 0.0
2017-Jan-15 06:28N 53°29' E 009°59'0 0.0
2017-Jan-15 05:31N 53°29' E 009°59'0 0.0
2017-Jan-15 04:31N 53°29' E 009°59'0 0.0
2017-Jan-15 03:34N 53°29' E 009°59'0 0.0
2017-Jan-15 02:34N 53°29' E 009°59'1 1.4
2017-Jan-15 01:33N 53°30' E 009°57'8 7.6
2017-Jan-15 00:33N 53°34' E 009°46'1010.0
2017-Jan-14 23:33N 53°38' E 009°31'1110.6
2017-Jan-14 22:33N 53°48' E 009°23'9 9.1
2017-Jan-14 21:33N 53°53' E 009°10'8 8.1
2017-Jan-14 20:33N 53°51' E 008°57'9 8.9
2017-Jan-14 19:33N 53°53' E 008°42'9 8.8
2017-Jan-14 18:33N 53°58' E 008°30'1111.0
2017-Jan-14 17:33N 53°59' E 008°11'6 6.4
2017-Jan-14 16:33N 54°00' E 008°01'8 8.0
2017-Jan-14 15:33N 54°05' E 007°49'  
Track history (hours):
 
Tides and Currents Weather Stations Pressure Air Temp Water Temp Dewpoint Dewpoint Depression Visibility Wind Speed Wind Dir Waves Ship Positions

Azamara Quest

Last reported at 2017-Jan-23 16:28 UTC. Time now 2017-Jan-23 16:47 UTC.
Position N 51°53' E 004°16'.

Length 184 m; draft 7 m.

Type: Ship. MMSI: 538005401.

Date/timePositionNaut miles runAvg speedWind from/ knotsBaromVisibWave heightAir tempDewpointWater temp
2017-Jan-23 16:28N 51°53' E 004°16'0 0.0
2017-Jan-23 15:28N 51°53' E 004°16'0 0.0
2017-Jan-23 14:28N 51°53' E 004°16'0 0.0
2017-Jan-23 13:28N 51°53' E 004°16'0 0.0
2017-Jan-23 12:28N 51°53' E 004°16'0 0.0
2017-Jan-23 11:28N 51°53' E 004°16'0 0.0
2017-Jan-23 10:29N 51°53' E 004°16'0 0.0
2017-Jan-23 09:25N 51°53' E 004°16'0 0.0
2017-Jan-23 08:31N 51°53' E 004°16'0 0.0
2017-Jan-23 07:29N 51°53' E 004°16'0 0.0
2017-Jan-23 06:28N 51°53' E 004°16'0 0.0
2017-Jan-23 05:22N 51°53' E 004°16'0 0.0
2017-Jan-23 04:29N 51°53' E 004°16'0 0.0
2017-Jan-23 03:31N 51°53' E 004°16'0 0.0
2017-Jan-23 02:28N 51°53' E 004°16'0 0.0
2017-Jan-23 01:32N 51°53' E 004°16'0 0.0
2017-Jan-23 00:29N 51°53' E 004°16'0 0.0
2017-Jan-22 23:29N 51°53' E 004°16'0 0.0
2017-Jan-22 22:32N 51°53' E 004°16'0 0.0
2017-Jan-22 21:29N 51°53' E 004°16'0 0.0
2017-Jan-22 20:32N 51°53' E 004°16'0 0.0
2017-Jan-22 19:31N 51°53' E 004°16'0 0.0
2017-Jan-22 18:32N 51°53' E 004°16'0 0.0
2017-Jan-22 17:23N 51°53' E 004°16'0 0.0
2017-Jan-22 16:23N 51°53' E 004°16'0 0.0
2017-Jan-22 15:29N 51°53' E 004°16'0 0.0
2017-Jan-22 14:28N 51°53' E 004°16'0 0.0
2017-Jan-22 13:29N 51°53' E 004°16'0 0.0
2017-Jan-22 12:29N 51°53' E 004°16'0 0.0
2017-Jan-22 11:23N 51°53' E 004°16'0 0.0
2017-Jan-22 10:29N 51°53' E 004°16'0 0.0
2017-Jan-22 09:28N 51°53' E 004°16'0 0.0
2017-Jan-22 08:28N 51°53' E 004°16'0 0.0
2017-Jan-22 07:26N 51°53' E 004°16'0 0.0
2017-Jan-22 06:28N 51°53' E 004°16'0 0.0
2017-Jan-22 05:29N 51°53' E 004°16'0 0.0
2017-Jan-22 04:29N 51°53' E 004°16'0 0.0
2017-Jan-22 03:23N 51°53' E 004°16'0 0.0
2017-Jan-22 02:29N 51°53' E 004°16'0 0.0
2017-Jan-22 01:32N 51°53' E 004°16'0 0.0
2017-Jan-22 00:29N 51°53' E 004°16'0 0.0
2017-Jan-21 23:29N 51°53' E 004°16'0 0.0
2017-Jan-21 22:29N 51°53' E 004°16'0 0.0
2017-Jan-21 21:17N 51°53' E 004°16'0 0.0
2017-Jan-21 20:29N 51°53' E 004°16'0 0.0
2017-Jan-21 19:29N 51°53' E 004°16'0 0.0
2017-Jan-21 18:29N 51°53' E 004°16'0 0.0
2017-Jan-21 17:29N 51°53' E 004°16'0 0.0
2017-Jan-21 16:29N 51°53' E 004°16'0 0.0
2017-Jan-21 15:28N 51°53' E 004°16'0 0.0
2017-Jan-21 14:29N 51°53' E 004°16'0 0.0
2017-Jan-21 13:32N 51°53' E 004°16'0 0.0
2017-Jan-21 12:17N 51°53' E 004°16'0 0.0
2017-Jan-21 11:29N 51°53' E 004°16'0 0.0
2017-Jan-21 10:29N 51°53' E 004°16'0 0.0
2017-Jan-21 09:28N 51°53' E 004°16'0 0.0
2017-Jan-21 08:29N 51°53' E 004°16'0 0.5
2017-Jan-21 07:34N 51°53' E 004°17'6 5.9
2017-Jan-21 06:33N 51°57' E 004°10'1211.8
2017-Jan-21 05:33N 51°59' E 003°51'4 4.3
2017-Jan-21 04:34N 51°57' E 003°46'0 0.1
2017-Jan-21 03:33N 51°57' E 003°45'0 0.0
2017-Jan-21 02:33N 51°57' E 003°45'0 0.0
2017-Jan-21 01:33N 51°57' E 003°45'0 0.1
2017-Jan-21 00:33N 51°57' E 003°46'5 5.0
2017-Jan-20 23:33N 52°01' E 003°50'1010.2
2017-Jan-20 22:33N 52°08' E 003°38'2 1.5
2017-Jan-20 21:28N 52°09' E 003°36'0 0.1
2017-Jan-20 20:22N 52°09' E 003°36'3 4.3
2017-Jan-20 19:33N 52°09' E 003°30'1212.4
2017-Jan-20 18:33N 52°13' E 003°11'10 9.1
2017-Jan-20 17:30N 52°20' E 002°60'8 7.5
2017-Jan-20 16:26N 52°24' E 002°49'8 7.5
2017-Jan-20 15:22N 52°31' E 002°42'8 2.5
2017-Jan-20 12:19N 52°38' E 002°37'8 9.2
2017-Jan-20 11:28N 52°46' E 002°38'1010.4
2017-Jan-20 10:33N 52°56' E 002°38'4 3.6
2017-Jan-20 09:25N 52°58' E 002°43'24 8.0
2017-Jan-20 06:27N 52°35' E 002°43'6 7.3
2017-Jan-20 05:33N 52°30' E 002°51'7 7.3
2017-Jan-20 04:33N 52°37' E 002°57'8 7.4
2017-Jan-20 03:31N 52°41' E 003°07'7 7.0
2017-Jan-20 02:32N 52°48' E 003°10'8 7.6
2017-Jan-20 01:29N 52°55' E 003°13'7 7.4
2017-Jan-20 00:33N 53°02' E 003°18'8 7.7
2017-Jan-19 23:33N 53°09' E 003°21'7 7.3
2017-Jan-19 22:32N 53°16' E 003°26'8 7.8
2017-Jan-19 21:31N 53°24' E 003°28'7 7.7
2017-Jan-19 20:33N 53°31' E 003°33'34 7.6
2017-Jan-19 16:07N 53°56' E 004°10'  
2017-Jan-15 23:26N 54°01' E 008°07'1011.3
2017-Jan-15 22:33N 53°59' E 008°24'1212.1
2017-Jan-15 21:33N 53°54' E 008°42'1414.2
2017-Jan-15 20:34N 53°53' E 009°06'1312.5
2017-Jan-15 19:33N 53°46' E 009°24'1515.0
2017-Jan-15 18:33N 53°34' E 009°39'10 9.8
2017-Jan-15 17:33N 53°32' E 009°56'4 4.0
2017-Jan-15 16:34N 53°29' E 009°58'0 0.3
2017-Jan-15 15:25N 53°29' E 009°59'0 0.0
2017-Jan-15 14:31N 53°29' E 009°59'0 0.0
2017-Jan-15 13:31N 53°29' E 009°59'0 0.0
2017-Jan-15 12:25N 53°29' E 009°59'0 0.0
2017-Jan-15 11:31N 53°29' E 009°59'0 0.0
2017-Jan-15 10:25N 53°29' E 009°59'0 0.0
2017-Jan-15 09:28N 53°29' E 009°59'0 0.0
2017-Jan-15 08:31N 53°29' E 009°59'0 0.0
2017-Jan-15 07:31N 53°29' E 009°59'0 0.0
2017-Jan-15 06:28N 53°29' E 009°59'0 0.0
2017-Jan-15 05:31N 53°29' E 009°59'0 0.0
2017-Jan-15 04:31N 53°29' E 009°59'0 0.0
2017-Jan-15 03:34N 53°29' E 009°59'0 0.0
2017-Jan-15 02:34N 53°29' E 009°59'1 1.4
2017-Jan-15 01:33N 53°30' E 009°57'8 7.6
2017-Jan-15 00:33N 53°34' E 009°46'1010.0
2017-Jan-14 23:33N 53°38' E 009°31'1110.6
2017-Jan-14 22:33N 53°48' E 009°23'9 9.1
2017-Jan-14 21:33N 53°53' E 009°10'8 8.1
2017-Jan-14 20:33N 53°51' E 008°57'9 8.9
2017-Jan-14 19:33N 53°53' E 008°42'9 8.8
2017-Jan-14 18:33N 53°58' E 008°30'1111.0
2017-Jan-14 17:33N 53°59' E 008°11'6 6.4
2017-Jan-14 16:33N 54°00' E 008°01'8 8.0
2017-Jan-14 15:33N 54°05' E 007°49'  

Dump ship's entire track history